createdAt,value
2019-02-16T00:00:48.880Z,90.10
2019-02-16T00:03:18.493Z,90.00
2019-02-16T00:05:48.108Z,90.00
2019-02-16T00:08:18.961Z,90.00
2019-02-16T00:10:48.655Z,89.70
2019-02-16T00:13:18.347Z,89.50
2019-02-16T00:15:47.949Z,89.40
2019-02-16T00:18:17.598Z,89.00
2019-02-16T00:20:47.313Z,88.50
2019-02-16T00:23:16.911Z,88.70
2019-02-16T00:25:46.534Z,87.60
2019-02-16T00:28:16.191Z,87.20
2019-02-16T00:30:45.788Z,87.10
2019-02-16T00:33:15.431Z,87.20
2019-02-16T00:35:45.041Z,86.90
2019-02-16T00:38:14.749Z,86.90
2019-02-16T00:40:45.697Z,86.80
2019-02-16T00:43:15.307Z,86.70
2019-02-16T00:45:44.946Z,86.20
2019-02-16T00:48:14.656Z,86.10
2019-02-16T00:50:44.524Z,86.00
2019-02-16T00:53:14.122Z,85.80
2019-02-16T00:55:43.773Z,85.60
2019-02-16T00:58:13.390Z,85.70
2019-02-16T01:00:43.054Z,85.60
2019-02-16T01:03:12.670Z,85.40
2019-02-16T01:05:42.321Z,85.30
2019-02-16T01:08:12.000Z,84.70
2019-02-16T01:10:41.620Z,84.50
2019-02-16T01:13:11.236Z,84.30
2019-02-16T01:15:41.103Z,84.00
2019-02-16T01:18:10.719Z,83.70
2019-02-16T01:20:40.305Z,83.70
2019-02-16T01:23:09.938Z,83.60
2019-02-16T01:25:39.612Z,83.60
2019-02-16T01:28:09.212Z,83.50
2019-02-16T01:30:38.816Z,83.10
2019-02-16T01:33:09.715Z,82.40
2019-02-16T01:35:39.332Z,82.20
2019-02-16T01:38:08.912Z,81.30
2019-02-16T01:40:38.845Z,80.60
2019-02-16T01:43:08.457Z,80.50
2019-02-16T01:45:38.049Z,79.80
2019-02-16T01:48:07.675Z,79.60
2019-02-16T01:50:37.311Z,79.50
2019-02-16T01:53:06.935Z,79.10
2019-02-16T01:55:36.584Z,79.00
2019-02-16T01:58:06.196Z,78.80
2019-02-16T02:00:35.844Z,78.70
2019-02-16T02:03:05.515Z,78.50
2019-02-16T02:05:35.101Z,78.50
2019-02-16T02:08:04.705Z,78.20
2019-02-16T02:10:34.360Z,78.40
2019-02-16T02:13:04.687Z,78.60
2019-02-16T02:15:34.293Z,78.80
2019-02-16T02:18:03.918Z,79.00
2019-02-16T02:20:33.529Z,78.90
2019-02-16T02:23:03.125Z,79.20
2019-02-16T02:25:32.776Z,78.50
2019-02-16T02:28:02.381Z,78.30
2019-02-16T02:30:32.090Z,78.00
2019-02-16T02:33:01.718Z,78.20
2019-02-16T02:35:31.336Z,77.30
2019-02-16T02:38:00.957Z,77.20
2019-02-16T02:40:30.597Z,77.10
2019-02-16T02:43:00.323Z,76.80
2019-02-16T02:45:29.911Z,77.30
2019-02-16T02:47:59.529Z,76.30
2019-02-16T02:50:29.142Z,76.10
2019-02-16T02:52:58.765Z,75.80
2019-02-16T02:55:28.388Z,75.80
2019-02-16T02:57:58.049Z,75.80
2019-02-16T03:00:27.723Z,76.40
2019-02-16T03:02:57.314Z,75.90
2019-02-16T03:05:26.928Z,76.10
2019-02-16T03:07:56.539Z,76.30
2019-02-16T03:10:26.129Z,76.60
2019-02-16T03:12:55.765Z,76.90
2019-02-16T03:15:25.485Z,77.00
2019-02-16T03:17:55.061Z,77.70
2019-02-16T03:20:24.709Z,77.90
2019-02-16T03:23:05.877Z,78.20
2019-02-16T03:25:35.477Z,78.60
2019-02-16T03:28:47.697Z,79.00
2019-02-16T03:31:36.575Z,79.50
2019-02-16T03:34:12.339Z,80.00
2019-02-16T03:36:54.869Z,80.40
2019-02-16T03:39:28.671Z,80.70
2019-02-16T03:41:58.268Z,80.70
2019-02-16T03:44:27.955Z,81.00
2019-02-16T03:46:57.518Z,81.40
2019-02-16T03:49:27.192Z,81.90
2019-02-16T03:51:56.829Z,82.50
2019-02-16T03:54:26.432Z,83.10
2019-02-16T03:56:56.109Z,83.80
2019-02-16T03:59:25.773Z,84.50
2019-02-16T04:01:55.381Z,85.10
2019-02-16T04:04:25.013Z,85.70
2019-02-16T04:06:54.626Z,86.20
2019-02-16T04:09:24.246Z,86.60
2019-02-16T04:11:53.880Z,87.00
2019-02-16T04:14:23.493Z,87.20
2019-02-16T04:16:53.135Z,87.30
2019-02-16T04:19:22.738Z,87.10
2019-02-16T04:21:52.357Z,87.00
2019-02-16T04:24:21.978Z,86.70
2019-02-16T04:26:51.583Z,86.60
2019-02-16T04:29:21.161Z,86.30
2019-02-16T04:31:50.819Z,86.40
2019-02-16T04:34:20.404Z,86.30
2019-02-16T04:36:49.996Z,86.10
2019-02-16T04:39:20.216Z,85.80
2019-02-16T04:41:49.850Z,85.40
2019-02-16T04:44:19.462Z,85.10
2019-02-16T04:46:49.070Z,84.50
2019-02-16T04:49:18.663Z,84.00
2019-02-16T04:51:48.361Z,83.50
2019-02-16T04:54:17.957Z,82.90
2019-02-16T04:56:47.605Z,82.30
2019-02-16T04:59:17.221Z,81.80
2019-02-16T05:01:46.870Z,81.50
2019-02-16T05:04:16.549Z,81.20
2019-02-16T05:06:46.146Z,81.00
2019-02-16T05:09:15.733Z,81.70
2019-02-16T05:11:45.339Z,80.90
2019-02-16T05:14:14.957Z,80.90
2019-02-16T05:16:44.596Z,80.70
2019-02-16T05:19:15.595Z,80.40
2019-02-16T05:21:45.164Z,79.80
2019-02-16T05:24:14.789Z,79.00
2019-02-16T05:26:44.440Z,78.20
2019-02-16T05:29:14.092Z,77.90
2019-02-16T05:31:43.705Z,77.80
2019-02-16T05:34:13.308Z,77.90
2019-02-16T05:36:42.960Z,78.00
2019-02-16T05:39:12.567Z,78.00
2019-02-16T05:41:42.204Z,78.20
2019-02-16T05:44:11.982Z,78.20
2019-02-16T05:46:41.593Z,78.40
2019-02-16T05:49:11.243Z,78.40
2019-02-16T05:51:40.800Z,78.80
2019-02-16T05:54:11.757Z,78.80
2019-02-16T05:56:41.370Z,78.90
2019-02-16T05:59:12.264Z,79.60
2019-02-16T06:01:42.479Z,80.30
2019-02-16T06:04:21.078Z,81.00
2019-02-16T06:06:50.664Z,81.50
2019-02-16T06:09:20.289Z,82.10
2019-02-16T06:11:49.917Z,82.90
2019-02-16T06:14:19.529Z,83.30
2019-02-16T06:16:50.353Z,83.80
2019-02-16T06:19:20.010Z,84.00
2019-02-16T06:21:49.617Z,84.20
2019-02-16T06:24:19.238Z,84.40
2019-02-16T06:26:48.875Z,84.50
2019-02-16T06:29:18.480Z,84.50
2019-02-16T06:31:48.132Z,84.40
2019-02-16T06:34:17.822Z,84.30
2019-02-16T06:36:47.421Z,84.20
2019-02-16T06:39:17.038Z,83.70
2019-02-16T06:41:46.653Z,83.50
2019-02-16T06:44:18.873Z,83.10
2019-02-16T06:46:48.511Z,82.90
2019-02-16T06:49:18.121Z,82.70
2019-02-16T06:51:47.780Z,82.60
2019-02-16T06:54:17.465Z,82.30
2019-02-16T06:56:53.334Z,82.20
2019-02-16T06:59:23.977Z,82.00
2019-02-16T07:01:54.389Z,81.70
2019-02-16T07:04:25.238Z,81.30
2019-02-16T07:06:54.837Z,80.80
2019-02-16T07:09:24.425Z,80.40
2019-02-16T07:11:55.280Z,80.00
2019-02-16T07:14:24.893Z,79.30
2019-02-16T07:17:00.677Z,78.80
2019-02-16T07:19:33.559Z,77.90
2019-02-16T07:22:03.181Z,76.90
2019-02-16T07:24:32.796Z,75.40
2019-02-16T07:27:03.516Z,73.40
2019-02-16T07:29:34.386Z,70.80
2019-02-16T07:32:06.446Z,68.50
2019-02-16T07:34:37.925Z,66.70
2019-02-16T07:37:07.577Z,63.90
2019-02-16T07:39:37.202Z,62.40
2019-02-16T07:42:06.822Z,61.00
2019-02-16T07:44:42.901Z,59.60
2019-02-16T07:47:18.254Z,58.40
2019-02-16T07:49:52.097Z,57.30
2019-02-16T07:52:28.093Z,56.20
2019-02-16T07:55:02.970Z,54.70
2019-02-16T07:57:38.371Z,53.60
2019-02-16T08:00:14.533Z,52.80
2019-02-16T08:03:53.885Z,52.00
2019-02-16T08:06:43.905Z,51.00
2019-02-16T08:09:32.985Z,50.20
2019-02-16T08:12:41.033Z,49.40
2019-02-16T08:15:14.890Z,48.30
2019-02-16T08:17:52.090Z,47.30
2019-02-16T08:20:34.036Z,46.40
2019-02-16T08:23:10.117Z,45.60
2019-02-16T08:25:50.078Z,44.80
2019-02-16T08:28:25.354Z,44.20
2019-02-16T08:31:01.518Z,43.80
2019-02-16T08:35:43.033Z,43.60
2019-02-16T08:38:22.930Z,43.10
2019-02-16T08:41:02.790Z,43.30
2019-02-16T08:43:38.463Z,42.90
2019-02-16T08:47:14.154Z,42.50
2019-02-16T08:50:01.229Z,42.20
2019-02-16T08:53:09.372Z,42.10
2019-02-16T08:55:49.271Z,41.80
2019-02-16T08:58:24.302Z,41.50
2019-02-16T09:01:57.233Z,41.00
2019-02-16T09:04:32.365Z,40.30
2019-02-16T09:07:08.514Z,39.80
2019-02-16T09:09:45.644Z,38.90
2019-02-16T09:12:23.804Z,37.50
2019-02-16T09:14:57.928Z,36.40
2019-02-16T09:17:33.074Z,35.80
2019-02-16T09:20:06.981Z,35.30
2019-02-16T09:22:43.925Z,35.20
2019-02-16T09:25:22.698Z,34.40
2019-02-16T09:27:57.510Z,33.80
2019-02-16T09:30:33.326Z,34.10
2019-02-16T09:33:09.534Z,34.20
2019-02-16T09:35:46.461Z,34.20
2019-02-16T09:38:23.420Z,33.90
2019-02-16T09:40:57.337Z,32.00
2019-02-16T09:43:35.458Z,31.00
2019-02-16T09:46:09.394Z,30.40
2019-02-16T09:48:44.137Z,28.30
2019-02-16T09:51:19.596Z,27.60
2019-02-16T09:53:55.342Z,26.20
2019-02-16T09:56:30.208Z,25.90
2019-02-16T09:59:07.999Z,26.00
2019-02-16T10:01:53.375Z,25.80
2019-02-16T10:04:31.236Z,25.50
2019-02-16T10:07:11.127Z,24.70
2019-02-16T10:09:51.350Z,23.80
2019-02-16T10:12:24.562Z,23.60
2019-02-16T10:15:00.913Z,23.90
2019-02-16T10:17:36.830Z,23.50
2019-02-16T10:20:11.961Z,23.40
2019-02-16T10:22:48.909Z,23.30
2019-02-16T10:25:25.842Z,23.30
2019-02-16T10:28:03.753Z,23.30
2019-02-16T10:30:40.317Z,23.10
2019-02-16T10:33:14.426Z,22.90
2019-02-16T10:35:48.438Z,22.70
2019-02-16T10:39:22.217Z,21.70
2019-02-16T10:41:57.141Z,21.20
2019-02-16T10:44:34.113Z,20.90
2019-02-16T10:47:29.100Z,20.80
2019-02-16T10:50:05.449Z,20.90
2019-02-16T10:52:44.454Z,21.10
2019-02-16T10:56:19.116Z,21.00
2019-02-16T10:58:59.910Z,20.30
2019-02-16T11:01:35.715Z,20.40
2019-02-16T11:04:25.394Z,20.50
2019-02-16T11:07:01.775Z,20.20
2019-02-16T11:09:40.557Z,19.50
2019-02-16T11:12:23.590Z,19.50
2019-02-16T11:14:59.418Z,19.30
2019-02-16T11:17:35.518Z,19.10
2019-02-16T11:22:19.071Z,19.10
2019-02-16T11:24:52.974Z,19.10
2019-02-16T11:27:31.217Z,19.10
2019-02-16T11:30:37.461Z,19.00
2019-02-16T11:33:18.818Z,19.10
2019-02-16T11:35:57.682Z,19.20
2019-02-16T11:38:31.597Z,19.20
2019-02-16T11:41:06.452Z,19.30
2019-02-16T11:43:45.395Z,19.30
2019-02-16T11:46:20.144Z,19.40
2019-02-16T11:48:58.266Z,19.50
2019-02-16T11:51:47.886Z,20.00
2019-02-16T11:54:22.957Z,20.60
2019-02-16T11:56:57.930Z,21.30
2019-02-16T11:59:37.636Z,21.60
2019-02-16T12:02:12.685Z,20.90
2019-02-16T12:04:50.953Z,20.40
2019-02-16T12:07:25.866Z,20.40
2019-02-16T12:10:33.574Z,20.20
2019-02-16T12:13:08.749Z,20.00
2019-02-16T12:15:43.587Z,20.20
2019-02-16T12:18:21.385Z,20.70
2019-02-16T12:20:58.369Z,20.80
2019-02-16T12:23:33.983Z,21.80
2019-02-16T12:26:19.643Z,22.90
2019-02-16T12:28:57.213Z,24.30
2019-02-16T12:33:34.733Z,25.70
2019-02-16T12:36:12.630Z,26.80
2019-02-16T12:39:46.306Z,28.50
2019-02-16T12:42:51.545Z,29.30
2019-02-16T12:45:33.457Z,30.40
2019-02-16T12:48:09.570Z,31.30
2019-02-16T12:51:47.202Z,32.10
2019-02-16T12:54:25.383Z,33.20
2019-02-16T12:56:59.342Z,33.20
2019-02-16T13:00:39.791Z,33.50
2019-02-16T13:03:19.657Z,33.90
2019-02-16T13:05:55.469Z,34.30
2019-02-16T13:08:31.465Z,34.70
2019-02-16T13:11:06.154Z,35.00
2019-02-16T13:13:43.954Z,35.00
2019-02-16T13:16:19.043Z,35.10
2019-02-16T13:18:53.046Z,35.30
2019-02-16T13:21:28.844Z,35.40
2019-02-16T13:24:09.460Z,35.50
2019-02-16T13:26:48.381Z,35.50
2019-02-16T13:29:26.795Z,35.70
2019-02-16T13:33:08.742Z,35.50
2019-02-16T13:35:44.491Z,35.70
2019-02-16T13:40:24.895Z,35.70
2019-02-16T13:43:02.725Z,35.90
2019-02-16T13:45:42.873Z,36.20
2019-02-16T13:48:21.185Z,36.40
2019-02-16T13:51:01.210Z,37.20
2019-02-16T13:54:38.219Z,36.80
2019-02-16T13:59:17.182Z,37.10
2019-02-16T14:01:54.457Z,37.20
2019-02-16T14:04:41.680Z,37.60
2019-02-16T14:07:18.165Z,37.80
2019-02-16T14:09:53.487Z,38.00
2019-02-16T14:14:35.977Z,38.20
2019-02-16T14:18:10.122Z,38.30
2019-02-16T14:20:39.751Z,38.40
2019-02-16T14:23:09.413Z,38.60
2019-02-16T14:25:44.836Z,38.70
2019-02-16T14:28:11.665Z,38.90
2019-02-16T14:30:41.324Z,39.00
2019-02-16T14:33:10.972Z,39.10
2019-02-16T14:35:40.616Z,39.30
2019-02-16T14:38:15.525Z,39.40
2019-02-16T14:40:45.165Z,39.50
2019-02-16T14:43:15.565Z,39.60
2019-02-16T14:45:45.227Z,39.80
2019-02-16T14:48:14.843Z,39.90
2019-02-16T14:50:44.473Z,40.00
2019-02-16T14:53:16.556Z,40.20
2019-02-16T14:55:53.695Z,40.30
2019-02-16T14:58:18.403Z,40.50
2019-02-16T15:00:50.539Z,40.70
2019-02-16T15:03:21.126Z,40.80
2019-02-16T15:05:50.847Z,40.80
2019-02-16T15:08:20.496Z,40.80
2019-02-16T15:10:51.099Z,40.80
2019-02-16T15:13:30.951Z,40.80
2019-02-16T15:16:00.613Z,40.90
2019-02-16T15:18:34.165Z,41.00
2019-02-16T15:21:05.324Z,41.10
2019-02-16T15:23:35.008Z,41.40
2019-02-16T15:26:04.729Z,41.70
2019-02-16T15:28:35.111Z,42.00
2019-02-16T15:31:06.006Z,42.90
2019-02-16T15:33:36.719Z,42.50
2019-02-16T15:36:07.711Z,42.80
2019-02-16T15:38:38.952Z,43.10
2019-02-16T15:41:09.967Z,43.30
2019-02-16T15:43:43.717Z,43.50
2019-02-16T15:46:14.296Z,43.70
2019-02-16T15:48:43.959Z,43.90
2019-02-16T15:51:18.692Z,44.40
2019-02-16T15:53:47.261Z,44.50
2019-02-16T15:56:16.929Z,44.80
2019-02-16T15:58:47.722Z,45.00
2019-02-16T16:01:17.431Z,45.30
2019-02-16T16:03:47.167Z,45.60
2019-02-16T16:06:17.785Z,45.90
2019-02-16T16:08:52.055Z,46.10
2019-02-16T16:11:59.191Z,46.40
2019-02-16T16:14:36.094Z,46.60
2019-02-16T16:17:12.459Z,46.90
2019-02-16T16:19:50.286Z,47.10
2019-02-16T16:22:29.640Z,47.90
2019-02-16T16:25:41.462Z,47.40
2019-02-16T16:28:19.841Z,47.60
2019-02-16T16:30:57.977Z,47.80
2019-02-16T16:34:05.235Z,48.20
2019-02-16T16:36:41.051Z,48.30
2019-02-16T16:39:17.318Z,48.40
2019-02-16T16:41:52.388Z,48.60
2019-02-16T16:44:32.402Z,48.70
2019-02-16T16:47:07.405Z,48.90
2019-02-16T16:50:45.366Z,49.10
2019-02-16T16:53:23.941Z,49.30
2019-02-16T16:55:58.683Z,49.40
2019-02-16T16:58:33.599Z,49.50
2019-02-16T17:01:13.430Z,49.70
2019-02-16T17:03:51.653Z,49.90
2019-02-16T17:06:28.404Z,50.10
2019-02-16T17:09:06.027Z,50.20
2019-02-16T17:11:42.290Z,50.50
2019-02-16T17:14:19.917Z,50.70
2019-02-16T17:16:59.442Z,51.00
2019-02-16T17:19:31.814Z,51.20
2019-02-16T17:23:08.912Z,51.30
2019-02-16T17:25:44.126Z,51.60
2019-02-16T17:28:18.953Z,51.90
2019-02-16T17:30:52.877Z,52.70
2019-02-16T17:33:34.073Z,52.30
2019-02-16T17:36:39.373Z,52.50
2019-02-16T17:39:13.309Z,52.70
2019-02-16T17:41:49.067Z,52.80
2019-02-16T17:44:24.115Z,52.90
2019-02-16T17:46:59.114Z,53.00
2019-02-16T17:49:39.111Z,53.00
2019-02-16T17:52:18.712Z,53.10
2019-02-16T17:54:55.358Z,53.30
2019-02-16T17:57:34.449Z,53.50
2019-02-16T18:02:12.682Z,53.50
2019-02-16T18:04:47.720Z,53.80
2019-02-16T18:07:21.615Z,53.80
2019-02-16T18:10:31.995Z,54.00
2019-02-16T18:13:08.672Z,54.20
2019-02-16T18:15:48.509Z,54.60
2019-02-16T18:18:26.296Z,54.90
2019-02-16T18:21:02.334Z,55.00
2019-02-16T18:23:37.353Z,55.20
2019-02-16T18:27:10.256Z,55.40
2019-02-16T18:29:47.021Z,55.50
2019-02-16T18:32:31.091Z,55.50
2019-02-16T18:37:02.550Z,55.60
2019-02-16T18:40:15.372Z,56.20
2019-02-16T18:42:49.213Z,56.00
2019-02-16T18:45:23.979Z,56.20
2019-02-16T18:48:03.828Z,56.40
2019-02-16T18:50:41.679Z,56.60
2019-02-16T18:53:16.500Z,56.60
2019-02-16T18:55:53.270Z,56.70
2019-02-16T18:58:31.240Z,56.90
2019-02-16T19:01:17.378Z,57.20
2019-02-16T19:03:52.362Z,57.30
2019-02-16T19:06:29.341Z,57.60
2019-02-16T19:09:03.233Z,57.90
2019-02-16T19:11:38.405Z,58.10
2019-02-16T19:15:15.320Z,58.20
2019-02-16T19:18:00.466Z,58.40
2019-02-16T19:21:12.157Z,58.60
2019-02-16T19:23:49.077Z,58.80
2019-02-16T19:28:27.706Z,59.00
2019-02-16T19:31:02.579Z,59.60
2019-02-16T19:33:42.505Z,58.80
2019-02-16T19:36:16.353Z,59.30
2019-02-16T19:39:08.498Z,59.50
2019-02-16T19:41:45.881Z,59.90
2019-02-16T19:45:25.762Z,59.90
2019-02-16T19:47:59.616Z,60.40
2019-02-16T19:50:37.719Z,61.30
2019-02-16T19:53:14.729Z,61.50
2019-02-16T19:55:51.240Z,61.20
2019-02-16T19:58:28.568Z,61.00
2019-02-16T20:01:07.413Z,61.00
2019-02-16T20:05:52.556Z,60.70
2019-02-16T20:08:26.417Z,60.40
2019-02-16T20:11:01.485Z,60.10
2019-02-16T20:13:35.388Z,60.00
2019-02-16T20:16:11.130Z,59.80
2019-02-16T20:18:56.372Z,59.70
2019-02-16T20:21:36.934Z,59.50
2019-02-16T20:24:10.815Z,59.50
2019-02-16T20:26:48.676Z,59.30
2019-02-16T20:29:24.686Z,59.10
2019-02-16T20:32:15.626Z,59.00
2019-02-16T20:34:48.770Z,58.70
2019-02-16T20:37:24.701Z,58.40
2019-02-16T20:40:05.779Z,58.40
2019-02-16T20:42:40.517Z,58.70
2019-02-16T20:45:30.793Z,59.20
2019-02-16T20:48:09.449Z,59.80
2019-02-16T20:50:45.441Z,60.20
2019-02-16T20:53:22.362Z,61.30
2019-02-16T20:55:58.137Z,61.00
2019-02-16T20:58:35.045Z,61.40
2019-02-16T21:01:09.786Z,61.80
2019-02-16T21:03:44.880Z,62.10
2019-02-16T21:06:18.733Z,62.50
2019-02-16T21:09:59.587Z,62.70
2019-02-16T21:12:38.515Z,62.80
2019-02-16T21:15:12.359Z,63.60
2019-02-16T21:17:49.488Z,63.90
2019-02-16T21:20:24.241Z,64.10
2019-02-16T21:23:04.565Z,64.50
2019-02-16T21:25:39.493Z,64.60
2019-02-16T21:29:14.849Z,64.60
2019-02-16T21:31:53.717Z,65.50
2019-02-16T21:34:29.957Z,65.70
2019-02-16T21:37:06.502Z,66.00
2019-02-16T21:39:42.582Z,66.60
2019-02-16T21:42:22.581Z,67.00
2019-02-16T21:44:56.440Z,67.60
2019-02-16T21:47:38.680Z,67.80
2019-02-16T21:50:13.681Z,68.70
2019-02-16T21:52:49.621Z,68.30
2019-02-16T21:55:30.410Z,68.60
2019-02-16T21:58:08.404Z,69.10
2019-02-16T22:00:42.389Z,69.10
2019-02-16T22:03:22.805Z,69.40
2019-02-16T22:05:57.985Z,69.90
2019-02-16T22:08:33.756Z,70.50
2019-02-16T22:11:08.330Z,70.80
2019-02-16T22:13:37.926Z,71.10
2019-02-16T22:16:07.597Z,71.10
2019-02-16T22:18:38.002Z,71.10
2019-02-16T22:21:07.626Z,71.40
2019-02-16T22:23:37.408Z,71.80
2019-02-16T22:26:08.274Z,72.40
2019-02-16T22:28:37.887Z,72.70
2019-02-16T22:31:07.465Z,73.00
2019-02-16T22:33:37.077Z,73.30
2019-02-16T22:36:06.714Z,73.50
2019-02-16T22:38:36.359Z,73.80
2019-02-16T22:41:05.989Z,74.00
2019-02-16T22:43:35.581Z,74.50
2019-02-16T22:46:05.217Z,75.20
2019-02-16T22:48:35.233Z,75.40
2019-02-16T22:51:04.838Z,75.90
2019-02-16T22:53:34.450Z,75.90
2019-02-16T22:56:05.285Z,76.40
2019-02-16T22:58:34.949Z,76.70
2019-02-16T23:01:04.579Z,77.00
2019-02-16T23:03:34.209Z,77.10
2019-02-16T23:06:04.592Z,77.10
2019-02-16T23:08:34.209Z,77.40
2019-02-16T23:11:05.179Z,77.60
2019-02-16T23:13:34.780Z,77.70
2019-02-16T23:16:04.437Z,78.00
2019-02-16T23:18:34.065Z,78.90
2019-02-16T23:21:06.888Z,79.20
2019-02-16T23:23:36.507Z,79.40
2019-02-16T23:26:06.122Z,79.20
2019-02-16T23:28:39.257Z,78.60
2019-02-16T23:31:06.847Z,79.30
2019-02-16T23:33:36.443Z,79.50
2019-02-16T23:36:06.134Z,79.80
2019-02-16T23:38:35.729Z,80.00
2019-02-16T23:41:06.637Z,80.00
2019-02-16T23:43:36.228Z,80.30
2019-02-16T23:46:05.813Z,81.00
2019-02-16T23:48:35.459Z,80.50
2019-02-16T23:51:05.047Z,80.60
2019-02-16T23:53:34.670Z,81.10
2019-02-16T23:56:04.255Z,81.10
2019-02-16T23:58:33.911Z,81.60
